Time;durP1;ratioP1;P1;durP2;ratioP2;P2;SDS_P1;SDS_P2;PMS_P1;PMS_P2;Temp;Humidity;BMP_temperature;BMP_pressure;BME280_temperature;BME280_humidity;BME280_pressure;Samples;Min_cycle;Max_cycle;Signal;HPM_P1;HPM_P2
2022/08/14 00:02:01;;;;;;;11.27;9.43;;;;;;;23.13;64.06;96318.00;6141520;22;20161;-76
2022/08/14 00:04:31;;;;;;;9.93;8.93;;;;;;;22.92;65.28;96306.25;6146189;22;20191;-76
2022/08/14 00:07:10;;;;;;;8.70;7.80;;;;;;;23.10;63.61;96302.47;6169050;22;20195;-77
2022/08/14 00:09:42;;;;;;;10.70;8.47;;;;;;;23.13;63.67;96298.66;6139054;22;20240;-76
2022/08/14 00:12:34;;;;;;;10.07;8.00;;;;;;;23.02;62.96;96262.03;6140826;22;20363;-76
2022/08/14 00:15:15;;;;;;;10.10;8.90;;;;;;;23.44;62.11;96319.00;6138524;22;20163;-76
2022/08/14 00:17:43;;;;;;;9.27;7.87;;;;;;;23.56;62.11;96335.34;6137029;22;20200;-76
2022/08/14 00:20:24;;;;;;;11.17;8.40;;;;;;;22.82;62.39;96237.75;6164058;22;20238;-76
2022/08/14 00:23:04;;;;;;;11.73;8.43;;;;;;;23.57;62.93;96359.97;6165689;22;20168;-77
2022/08/14 00:25:50;;;;;;;11.90;8.57;;;;;;;23.23;63.09;96310.72;6166845;22;20493;-77
2022/08/14 00:28:25;;;;;;;9.77;8.77;;;;;;;23.20;63.04;96318.16;6167450;22;20173;-76
2022/08/14 00:30:58;;;;;;;12.40;8.40;;;;;;;23.29;62.44;96331.19;6161950;22;20159;-76
2022/08/14 00:33:28;;;;;;;11.30;8.63;;;;;;;22.98;63.57;96287.94;6162607;22;20170;-76
2022/08/14 00:36:15;;;;;;;10.73;9.00;;;;;;;22.99;62.92;96276.41;6140372;22;20398;-76
2022/08/14 00:39:03;;;;;;;10.53;8.47;;;;;;;23.48;63.08;96353.84;6140523;22;20523;-76
2022/08/14 00:41:35;;;;;;;11.77;8.70;;;;;;;23.32;62.68;96333.56;6137531;22;20164;-76
2022/08/14 00:44:05;;;;;;;10.60;8.20;;;;;;;23.23;62.50;96300.16;6160469;22;20171;-76
2022/08/14 00:46:36;;;;;;;11.90;8.07;;;;;;;23.65;63.08;96368.72;6185903;22;20218;-77
2022/08/14 00:49:04;;;;;;;9.97;8.10;;;;;;;23.03;62.75;96288.28;6160540;22;20214;-76
2022/08/14 00:51:32;;;;;;;12.33;8.10;;;;;;;23.11;63.09;96288.28;6136564;22;20166;-76
2022/08/14 00:54:07;;;;;;;11.83;8.23;;;;;;;23.01;63.88;96284.97;6183703;22;20389;-75
2022/08/14 00:56:51;;;;;;;9.87;8.13;;;;;;;23.20;63.24;96307.59;6161904;22;20163;-77
2022/08/14 00:59:27;;;;;;;8.77;7.83;;;;;;;22.95;62.97;96269.78;6161482;22;20163;-75
2022/08/14 01:01:59;;;;;;;9.93;8.90;;;;;;;23.21;62.26;96286.28;6137832;22;20178;-76
2022/08/14 01:04:32;;;;;;;9.50;8.50;;;;;;;23.43;62.80;96341.13;6137056;22;20262;-77
2022/08/14 01:07:21;;;;;;;9.50;7.97;;;;;;;23.29;63.15;96303.94;6140618;22;20191;-76
2022/08/14 01:09:54;;;;;;;9.40;8.17;;;;;;;22.82;63.64;96239.56;6160995;22;20166;-76
2022/08/14 01:12:24;;;;;;;10.33;8.50;;;;;;;23.14;64.10;96326.75;6161230;22;20167;-77
2022/08/14 01:14:56;;;;;;;10.17;8.67;;;;;;;23.33;63.98;96350.22;6161110;22;20172;-77
2022/08/14 01:21:02;;;;;;;10.57;8.70;;;;;;;23.25;63.72;96323.75;6161079;22;20205;-75
2022/08/14 01:23:13;;;;;;;11.30;8.47;;;;;;;22.49;64.45;96222.84;6161025;22;20178;-76
2022/08/14 01:25:43;;;;;;;9.07;8.10;;;;;;;22.38;64.20;96197.59;6161655;22;20162;-76
2022/08/14 01:28:12;;;;;;;10.20;8.80;;;;;;;22.55;64.03;96220.38;6161608;22;20231;-76
2022/08/14 01:31:00;;;;;;;11.47;9.53;;;;;;;23.29;64.47;96368.19;6140270;22;20199;-76
2022/08/14 01:33:28;;;;;;;11.17;9.27;;;;;;;22.03;65.73;96197.84;6137230;22;20171;-76
2022/08/14 01:36:00;;;;;;;12.23;9.37;;;;;;;22.03;66.46;96239.25;6161315;22;20171;-76
2022/08/14 01:38:33;;;;;;;10.93;9.03;;;;;;;22.61;67.33;96362.31;6161510;22;20520;-76
2022/08/14 01:41:07;;;;;;;11.00;8.70;;;;;;;22.13;66.87;96282.97;6137163;22;20161;-76
2022/08/14 01:43:51;;;;;;;16.20;9.90;;;;;;;22.08;67.14;96281.78;6164328;22;20180;-76
2022/08/14 01:46:24;;;;;;;13.87;9.13;;;;;;;21.92;67.49;96248.25;6137858;22;20167;-76
2022/08/14 01:49:00;;;;;;;10.30;9.03;;;;;;;22.23;67.20;96288.94;6138375;22;20171;-76
2022/08/14 01:51:29;;;;;;;13.13;9.73;;;;;;;22.65;67.12;96361.00;6137303;22;20189;-76
2022/08/14 01:54:14;;;;;;;12.63;9.47;;;;;;;22.22;67.71;96334.75;6137625;22;20166;-76
2022/08/14 01:56:44;;;;;;;11.63;9.50;;;;;;;21.98;67.94;96289.81;6162212;22;20169;-77
2022/08/14 01:59:14;;;;;;;12.93;9.47;;;;;;;22.47;68.04;96348.84;6163626;22;20183;-76
2022/08/14 02:01:46;;;;;;;10.27;8.97;;;;;;;21.45;67.56;96192.50;6165030;22;20164;-76
2022/08/14 02:04:33;;;;;;;11.40;9.20;;;;;;;21.69;67.83;96226.88;6164068;22;20167;-76
2022/08/14 02:07:20;;;;;;;11.43;9.23;;;;;;;22.18;67.96;96299.13;6145266;22;20193;-76
2022/08/14 02:10:09;;;;;;;12.87;9.30;;;;;;;21.99;67.26;96246.63;6144722;22;20167;-76
2022/08/14 02:12:45;;;;;;;11.07;9.30;;;;;;;22.20;67.83;96312.97;6162854;22;20161;-75
2022/08/14 02:15:24;;;;;;;10.17;8.73;;;;;;;21.91;68.20;96246.59;6138634;22;20212;-76
2022/08/14 02:17:52;;;;;;;10.23;8.73;;;;;;;21.79;68.63;96253.94;6160351;22;20161;-76
2022/08/14 02:20:19;;;;;;;10.40;8.80;;;;;;;22.08;68.87;96306.34;6161110;22;20161;-76
2022/08/14 02:22:52;;;;;;;9.83;8.83;;;;;;;21.91;68.69;96262.41;6138587;22;20208;-76
2022/08/14 02:25:21;;;;;;;11.60;9.17;;;;;;;21.96;68.33;96257.50;6136019;22;20489;-76
2022/08/14 02:27:55;;;;;;;13.00;9.77;;;;;;;22.74;68.01;96356.56;6163065;22;20499;-78
2022/08/14 02:30:43;;;;;;;10.17;8.93;;;;;;;22.54;67.76;96297.09;6141812;22;20175;-77
2022/08/14 02:33:11;;;;;;;11.27;9.93;;;;;;;22.28;68.01;96265.50;6138492;22;20369;-77
2022/08/14 02:35:42;;;;;;;11.43;9.20;;;;;;;21.90;68.97;96231.78;6163542;22;20559;-78
2022/08/14 02:38:09;;;;;;;12.70;10.27;;;;;;;21.68;70.08;96250.75;6139524;22;20233;-79
2022/08/14 02:40:58;;;;;;;15.57;10.17;;;;;;;22.12;70.73;96344.59;6163049;22;20164;-78
2022/08/14 02:43:30;;;;;;;13.17;9.73;;;;;;;21.42;70.41;96202.53;6138609;22;20172;-75
2022/08/14 02:46:12;;;;;;;10.87;9.00;;;;;;;22.12;69.56;96283.09;6166044;22;20188;-77
2022/08/14 02:48:46;;;;;;;12.57;10.13;;;;;;;22.49;69.07;96313.41;6165517;22;20268;-76
2022/08/14 02:51:34;;;;;;;15.53;9.07;;;;;;;22.44;69.76;96325.44;6163473;22;20167;-78
2022/08/14 02:54:06;;;;;;;11.23;9.63;;;;;;;22.16;69.64;96280.00;6139123;22;20516;-77
2022/08/14 02:56:37;;;;;;;12.90;10.33;;;;;;;21.72;69.74;96228.38;6137902;22;20158;-80
2022/08/14 02:59:31;;;;;;;11.07;9.60;;;;;;;21.94;70.53;96314.84;6140984;22;20232;-76
2022/08/14 03:02:02;;;;;;;13.10;10.13;;;;;;;21.21;72.15;96236.31;6162079;22;20178;-76
2022/08/14 03:04:31;;;;;;;12.30;9.43;;;;;;;21.59;72.48;96336.03;6136799;22;20206;-79
2022/08/14 03:06:59;;;;;;;13.70;10.53;;;;;;;20.76;73.47;96205.69;6137118;22;20425;-75
2022/08/14 03:09:38;;;;;;;12.03;10.33;;;;;;;20.41;74.05;96157.53;6163150;22;20170;-77
2022/08/14 03:12:25;;;;;;;15.20;10.20;;;;;;;20.58;73.69;96180.38;6165190;22;20478;-79
2022/08/14 03:15:08;;;;;;;14.47;10.70;;;;;;;20.98;74.57;96265.75;6164356;22;20194;-79
2022/08/14 03:17:41;;;;;;;15.23;10.90;;;;;;;21.21;75.19;96336.38;6161865;22;20196;-77
2022/08/14 03:20:29;;;;;;;12.87;10.13;;;;;;;20.85;75.37;96281.13;6144007;22;20231;-75
2022/08/14 03:22:59;;;;;;;11.50;10.30;;;;;;;20.10;75.12;96168.41;6162680;22;20208;-77
2022/08/14 03:25:32;;;;;;;15.23;10.70;;;;;;;20.60;75.80;96263.44;6140427;22;20476;-77
2022/08/14 03:28:05;;;;;;;12.13;9.30;;;;;;;20.59;75.46;96239.91;6169105;22;20241;-80
2022/08/14 03:30:34;;;;;;;12.77;10.50;;;;;;;20.02;75.14;96170.13;6168618;22;20190;-77
2022/08/14 03:33:09;;;;;;;12.60;10.73;;;;;;;20.39;75.43;96220.00;6145735;22;20184;-77
2022/08/14 03:35:40;;;;;;;15.40;10.73;;;;;;;21.22;75.04;96343.31;6145736;22;20514;-76
2022/08/14 03:38:29;;;;;;;13.83;10.53;;;;;;;20.99;73.74;96272.69;6153308;22;20222;-79
2022/08/14 03:41:22;;;;;;;15.13;10.23;;;;;;;21.34;73.55;96316.59;6153521;22;20159;-80
2022/08/14 03:43:57;;;;;;;11.33;10.07;;;;;;;21.54;72.32;96301.38;6195663;22;20164;-77
2022/08/14 03:46:45;;;;;;;11.33;9.53;;;;;;;21.78;71.36;96298.91;6167319;22;20160;-76
2022/08/14 03:49:23;;;;;;;14.60;9.67;;;;;;;21.08;70.89;96156.91;6163741;22;20473;-75
2022/08/14 03:51:58;;;;;;;16.30;10.97;;;;;;;21.84;71.54;96290.41;6144701;22;20176;-77
2022/08/14 03:54:28;;;;;;;15.63;10.60;;;;;;;22.12;70.82;96323.50;6171548;22;20171;-77
2022/08/14 03:56:59;;;;;;;13.87;11.00;;;;;;;22.36;70.27;96320.94;6174854;22;20165;-79
2022/08/14 03:59:31;;;;;;;15.23;10.73;;;;;;;22.03;69.65;96228.69;6143385;22;20163;-79
2022/08/14 04:02:02;;;;;;;11.60;9.60;;;;;;;22.22;68.61;96274.06;6269880;22;20164;-80
2022/08/14 04:04:50;;;;;;;12.23;10.13;;;;;;;22.16;68.86;96269.44;6147681;22;20174;-79
2022/08/14 04:07:17;;;;;;;12.70;9.83;;;;;;;22.37;68.97;96303.31;6170588;22;20530;-79
2022/08/14 04:09:48;;;;;;;12.47;9.07;;;;;;;21.75;68.41;96177.97;6172661;22;20161;-76
2022/08/14 04:12:20;;;;;;;13.97;9.37;;;;;;;22.04;68.96;96235.59;6169972;22;20169;-78
2022/08/14 04:14:52;;;;;;;13.73;9.80;;;;;;;22.43;68.10;96292.94;6169086;22;20213;-76
2022/08/14 04:17:20;;;;;;;10.97;9.37;;;;;;;22.15;67.85;96236.16;6162828;22;20204;-76
2022/08/14 04:19:48;;;;;;;12.30;9.00;;;;;;;22.27;67.28;96234.88;6168856;22;20165;-78
2022/08/14 04:22:15;;;;;;;11.03;9.33;;;;;;;22.72;67.14;96284.63;6166912;22;20169;-77
2022/08/14 04:24:47;;;;;;;12.13;9.13;;;;;;;22.39;66.92;96222.19;6173240;22;20176;-76
2022/08/14 04:27:16;;;;;;;11.00;9.20;;;;;;;23.09;66.80;96315.84;6148195;22;20199;-81
2022/08/14 04:29:44;;;;;;;16.17;9.27;;;;;;;22.59;65.85;96194.50;6149209;22;20167;-80
2022/08/14 04:32:12;;;;;;;13.10;8.37;;;;;;;23.06;65.68;96250.94;6146710;22;20166;-77
2022/08/14 04:35:00;;;;;;;14.67;8.60;;;;;;;23.34;65.48;96283.19;6149693;22;20161;-78
2022/08/14 04:43:42;;;;;;;12.07;9.07;;;;;;;22.83;65.28;96222.75;6164705;22;20159;-75
2022/08/14 04:46:15;;;;;;;13.60;9.37;;;;;;;22.25;66.88;96207.81;6138453;22;20164;-77
2022/08/14 04:49:03;;;;;;;12.57;9.07;;;;;;;21.95;67.00;96213.66;6146519;22;20205;-76
2022/08/14 04:51:34;;;;;;;11.23;9.07;;;;;;;21.98;67.67;96260.81;6163781;22;20432;-76
2022/08/14 04:54:25;;;;;;;11.93;9.50;;;;;;;22.08;67.41;96268.59;6164707;22;20185;-76
2022/08/14 04:56:54;;;;;;;13.77;9.17;;;;;;;21.88;67.85;96258.28;6138492;22;20180;-75
2022/08/14 04:59:23;;;;;;;13.13;9.10;;;;;;;21.48;67.76;96162.38;6161471;22;20177;-76
2022/08/14 05:01:51;;;;;;;11.37;8.73;;;;;;;22.14;66.62;96216.03;6138637;22;20166;-79
2022/08/14 05:04:23;;;;;;;12.10;9.13;;;;;;;22.78;65.24;96272.56;6165300;22;20170;-76
2022/08/14 05:06:53;;;;;;;12.67;8.70;;;;;;;22.40;65.47;96237.03;6137181;22;20164;-76
2022/08/14 05:09:23;;;;;;;12.03;9.00;;;;;;;21.94;66.19;96185.66;6138477;22;20200;-76
2022/08/14 05:11:54;;;;;;;11.97;9.67;;;;;;;22.32;66.55;96232.53;6159925;22;20168;-75
2022/08/14 05:14:42;;;;;;;11.40;9.03;;;;;;;22.25;65.56;96202.53;6142740;22;20206;-78
2022/08/14 05:17:25;;;;;;;11.43;8.97;;;;;;;22.62;64.82;96237.25;6168404;22;20198;-77
2022/08/14 05:20:11;;;;;;;13.13;9.03;;;;;;;22.13;64.38;96166.06;6169851;22;20396;-77
2022/08/14 05:22:58;;;;;;;12.00;8.80;;;;;;;23.05;63.56;96280.19;6144385;22;20212;-75
2022/08/14 05:25:27;;;;;;;12.40;8.73;;;;;;;23.42;62.94;96267.31;6135714;22;20167;-77
2022/08/14 05:28:26;;;;;;;11.67;8.63;;;;;;;23.28;61.61;96172.84;6138733;22;20265;-76
2022/08/14 05:31:00;;;;;;;10.07;8.40;;;;;;;23.49;60.90;96174.94;6161262;22;20191;-76
2022/08/14 05:33:31;;;;;;;10.37;8.87;;;;;;;23.54;59.95;96154.94;6141161;22;20482;-80
2022/08/14 05:36:08;;;;;;;10.77;8.77;;;;;;;23.99;58.64;96185.97;6168463;22;20200;-80
2022/08/14 05:38:46;;;;;;;10.53;8.60;;;;;;;24.20;58.99;96200.28;6170308;22;20185;-81
2022/08/14 05:41:17;;;;;;;12.13;8.30;;;;;;;23.94;58.16;96167.97;6193589;22;20191;-77
2022/08/14 05:43:46;;;;;;;10.03;7.97;;;;;;;24.10;58.90;96227.94;6194624;22;20165;-81
2022/08/14 05:46:21;;;;;;;9.63;8.03;;;;;;;24.76;58.70;96312.16;6194010;22;20157;-80
2022/08/14 05:48:55;;;;;;;12.23;8.53;;;;;;;24.69;59.67;96303.25;6194819;22;20184;-78
2022/08/14 05:51:27;;;;;;;10.67;8.30;;;;;;;24.55;59.72;96288.06;6192447;22;20164;-78
2022/08/14 05:53:59;;;;;;;11.10;8.77;;;;;;;23.93;58.76;96166.31;6170841;22;20232;-79
2022/08/14 05:56:39;;;;;;;12.83;9.70;;;;;;;24.66;58.50;96279.75;6172140;22;20220;-76
2022/08/14 05:59:14;;;;;;;11.67;7.90;;;;;;;24.34;58.36;96241.03;6144957;22;20166;-79
2022/08/14 06:02:11;;;;;;;11.33;9.07;;;;;;;23.95;59.19;96177.56;6151767;22;20184;-79
2022/08/14 06:04:46;;;;;;;12.07;8.50;;;;;;;24.24;58.75;96222.75;6195240;22;20152;-80
2022/08/14 06:07:17;;;;;;;10.30;8.20;;;;;;;23.96;58.78;96141.34;6169216;22;20328;-81
2022/08/14 06:09:47;;;;;;;13.57;8.93;;;;;;;24.17;58.27;96162.75;6168811;22;20162;-77
2022/08/14 06:12:26;;;;;;;12.83;9.10;;;;;;;24.47;57.58;96187.53;6149670;22;20165;-80
2022/08/14 06:15:16;;;;;;;11.90;8.90;;;;;;;24.30;57.46;96167.47;6221924;22;20658;-81
2022/08/14 06:17:51;;;;;;;11.57;8.33;;;;;;;24.13;57.56;96146.38;6197591;22;20209;-77
2022/08/14 06:20:29;;;;;;;12.07;8.37;;;;;;;24.19;57.29;96147.53;6195155;22;20234;-80
2022/08/14 06:22:58;;;;;;;10.57;8.40;;;;;;;24.22;57.08;96148.00;6193953;22;20173;-78
2022/08/14 06:25:37;;;;;;;9.67;8.67;;;;;;;24.91;56.92;96236.22;6150864;22;20169;-81
2022/08/14 06:28:17;;;;;;;13.17;8.43;;;;;;;24.85;56.67;96247.53;6151571;22;20217;-81
2022/08/14 06:30:55;;;;;;;12.03;8.50;;;;;;;24.69;57.61;96247.63;6116829;23;20228;-79
2022/08/14 06:33:24;;;;;;;10.23;7.97;;;;;;;24.46;57.55;96201.78;6115403;23;20189;-81
2022/08/14 06:36:12;;;;;;;12.17;8.57;;;;;;;25.09;57.52;96297.69;6118452;23;20165;-82
2022/08/14 06:38:50;;;;;;;9.77;7.97;;;;;;;24.36;56.56;96156.97;6096127;23;20193;-79
2022/08/14 06:41:24;;;;;;;9.10;7.47;;;;;;;25.14;57.33;96305.09;6112770;23;20370;-78
2022/08/14 06:44:15;;;;;;;9.43;8.20;;;;;;;24.61;57.16;96239.72;6112972;23;20163;-78
2022/08/14 06:46:44;;;;;;;10.27;7.57;;;;;;;24.44;57.29;96195.81;6114950;23;20205;-79
2022/08/14 06:49:24;;;;;;;11.67;8.77;;;;;;;24.15;57.11;96159.47;6115227;23;20196;-76
2022/08/14 06:52:13;;;;;;;10.70;9.60;;;;;;;23.92;57.72;96153.28;6165215;23;20158;-78
2022/08/14 06:54:55;;;;;;;9.23;7.63;;;;;;;23.99;57.36;96155.03;6117873;23;20438;-77
2022/08/14 06:57:44;;;;;;;9.60;7.57;;;;;;;24.57;58.04;96243.72;6144710;23;20162;-79
2022/08/14 07:00:25;;;;;;;12.00;8.40;;;;;;;24.68;57.08;96238.84;6141705;23;20484;-78
2022/08/14 07:05:48;;;;;;;9.70;8.63;;;;;;;24.92;56.43;96253.75;6143913;23;20239;-82
2022/08/14 07:08:28;;;;;;;10.73;8.70;;;;;;;24.93;56.27;96248.31;6167760;22;20222;-78
2022/08/14 07:11:02;;;;;;;9.43;8.13;;;;;;;24.29;56.30;96156.06;6199118;22;20221;-79
2022/08/14 07:13:30;;;;;;;9.57;8.13;;;;;;;24.94;56.92;96304.75;6200255;22;20154;-79
2022/08/14 07:16:05;;;;;;;10.93;8.87;;;;;;;24.13;57.10;96164.91;6172663;22;20195;-79
2022/08/14 07:18:45;;;;;;;9.67;8.37;;;;;;;24.09;56.79;96150.38;6193769;22;20320;-78
2022/08/14 07:21:17;;;;;;;10.80;8.13;;;;;;;24.95;56.52;96301.09;6195768;22;20165;-75
2022/08/14 07:23:45;;;;;;;10.20;8.30;;;;;;;23.98;56.29;96142.81;6168522;22;20176;-78
2022/08/14 07:26:19;;;;;;;11.30;8.10;;;;;;;24.70;56.98;96262.50;6170760;22;20165;-75
2022/08/14 07:28:48;;;;;;;10.03;8.43;;;;;;;24.27;56.42;96158.06;6196145;22;20673;-79
2022/08/14 07:31:22;;;;;;;9.40;7.93;;;;;;;24.32;56.04;96160.19;6195401;22;20182;-82
2022/08/14 07:33:50;;;;;;;13.47;8.97;;;;;;;25.11;56.41;96271.81;6149008;22;20162;-73
2022/08/14 07:36:20;;;;;;;9.83;8.70;;;;;;;24.61;56.18;96181.44;6201896;22;20191;-76
2022/08/14 07:38:58;;;;;;;10.43;9.33;;;;;;;24.87;56.19;96216.38;6202956;22;20160;-77
2022/08/14 07:41:39;;;;;;;10.77;8.93;;;;;;;25.10;56.49;96264.84;6199995;22;20177;-81
2022/08/14 07:44:12;;;;;;;11.50;9.20;;;;;;;24.62;55.85;96168.06;6170898;22;20229;-79
2022/08/14 07:47:00;;;;;;;11.43;9.57;;;;;;;25.39;56.21;96282.69;6197193;22;20165;-76
2022/08/14 07:49:27;;;;;;;11.90;8.80;;;;;;;24.89;55.30;96207.25;6218255;22;20265;-80
2022/08/14 07:51:55;;;;;;;10.97;9.00;;;;;;;24.91;55.73;96204.44;6190936;22;20378;-79
2022/08/14 07:58:54;;;;;;;10.03;8.57;;;;;;;25.33;54.80;96209.16;6193087;22;20170;-80
2022/08/14 08:01:29;;;;;;;12.73;8.57;;;;;;;25.44;54.63;96232.63;6172734;22;20233;-77
2022/08/14 08:04:03;;;;;;;10.67;8.90;;;;;;;25.76;54.53;96299.41;6169082;22;20165;-80
2022/08/14 08:06:43;;;;;;;11.57;8.33;;;;;;;25.07;54.59;96166.34;6193299;22;20163;-78
2022/08/14 08:09:11;;;;;;;11.07;8.97;;;;;;;25.75;53.95;96233.28;6168512;22;20203;-79
2022/08/14 08:11:41;;;;;;;11.33;8.87;;;;;;;25.37;53.55;96152.94;6190613;22;20230;-76
2022/08/14 08:14:09;;;;;;;11.27;9.23;;;;;;;25.54;53.26;96169.53;6193956;22;20171;-79
2022/08/14 08:16:46;;;;;;;10.50;9.30;;;;;;;25.37;53.34;96115.81;6194363;22;20193;-80
2022/08/14 08:19:18;;;;;;;14.17;10.77;;;;;;;25.68;53.00;96153.59;6197461;22;20167;-76
2022/08/14 08:21:46;;;;;;;11.30;9.00;;;;;;;25.77;52.98;96133.94;6195684;22;20162;-76
2022/08/14 08:24:15;;;;;;;11.10;9.90;;;;;;;25.77;52.91;96128.63;6170720;22;20174;-80
2022/08/14 08:26:49;;;;;;;12.00;9.33;;;;;;;25.87;52.63;96141.59;6195063;22;20162;-83
2022/08/14 08:29:26;;;;;;;15.27;9.33;;;;;;;26.36;52.32;96202.81;6168742;22;20205;-77
2022/08/14 08:31:55;;;;;;;11.10;8.50;;;;;;;26.47;51.90;96240.34;6192291;22;20205;-75
2022/08/14 08:34:45;;;;;;;10.10;8.90;;;;;;;25.97;51.71;96136.81;6170237;22;20239;-80
2022/08/14 08:37:15;;;;;;;11.90;9.80;;;;;;;25.93;52.31;96155.94;6217277;22;20158;-77
2022/08/14 08:39:53;;;;;;;10.70;8.50;;;;;;;26.44;53.08;96255.84;6194845;22;20151;-79
2022/08/14 08:42:38;;;;;;;11.50;9.03;;;;;;;26.33;52.93;96251.00;6192660;22;20189;-83
2022/08/14 08:45:16;;;;;;;11.13;9.33;;;;;;;25.80;53.23;96175.19;6169533;22;20158;-79
2022/08/14 08:47:46;;;;;;;10.67;9.57;;;;;;;25.67;52.84;96146.66;6145681;22;20175;-81
2022/08/14 08:50:30;;;;;;;13.67;9.60;;;;;;;25.69;53.32;96142.00;6165107;22;20276;-78
2022/08/14 08:53:01;;;;;;;10.07;8.50;;;;;;;26.60;53.01;96274.19;6168329;22;20189;-79
2022/08/14 08:55:34;;;;;;;11.07;8.57;;;;;;;26.68;53.06;96265.28;6138798;22;20170;-77
2022/08/14 08:58:10;;;;;;;11.90;9.73;;;;;;;26.24;52.23;96161.84;6166405;22;20163;-79
2022/08/14 09:00:52;;;;;;;9.70;8.43;;;;;;;26.12;51.92;96118.22;6142396;22;20178;-76
2022/08/14 09:03:24;;;;;;;12.33;11.17;;;;;;;26.69;51.56;96203.19;6142833;22;20457;-80
2022/08/14 09:06:02;;;;;;;12.47;8.37;;;;;;;27.10;51.21;96239.56;6138647;22;20163;-78
2022/08/14 09:08:50;;;;;;;11.70;9.83;;;;;;;26.39;51.16;96110.34;6165259;22;20198;-78
2022/08/14 09:11:17;;;;;;;14.07;8.50;;;;;;;27.19;50.65;96243.72;6137300;22;20166;-75
2022/08/14 09:13:52;;;;;;;13.10;9.67;;;;;;;26.79;49.86;96108.84;6135847;22;20254;-77
2022/08/14 09:16:26;;;;;;;14.80;8.43;;;;;;;26.89;48.76;96082.78;6163278;22;20389;-77
2022/08/14 09:18:54;;;;;;;9.37;8.23;;;;;;;27.86;48.96;96224.56;6163686;22;20238;-81
2022/08/14 09:21:22;;;;;;;11.30;8.80;;;;;;;27.68;48.71;96163.88;6164281;22;20347;-76
2022/08/14 09:23:54;;;;;;;10.60;8.80;;;;;;;27.80;47.89;96141.00;6161836;22;20388;-77
2022/08/14 09:26:44;;;;;;;12.90;8.33;;;;;;;28.28;47.44;96211.06;6182046;22;20163;-77
2022/08/14 09:29:17;;;;;;;9.67;8.20;;;;;;;27.48;47.66;96114.25;6140064;22;20617;-77
2022/08/14 09:31:59;;;;;;;9.33;8.40;;;;;;;27.67;48.41;96161.41;6139076;22;20163;-78
2022/08/14 09:34:35;;;;;;;12.27;9.10;;;;;;;28.16;48.52;96204.66;6161051;22;20166;-76
2022/08/14 09:37:27;;;;;;;11.33;9.10;;;;;;;27.93;46.94;96129.59;6136526;22;20175;-79
2022/08/14 09:40:02;;;;;;;9.43;8.40;;;;;;;28.75;46.37;96208.34;6165148;22;20369;-80
2022/08/14 09:42:49;;;;;;;10.33;8.70;;;;;;;28.86;45.31;96207.75;6140805;22;20158;-81
2022/08/14 09:45:41;;;;;;;9.33;8.30;;;;;;;28.68;44.62;96220.03;6136874;22;20163;-76
2022/08/14 09:48:22;;;;;;;7.33;5.70;;;;;;;26.97;45.14;96127.81;6164274;22;20402;-81
2022/08/14 09:50:58;;;;;;;10.47;5.37;;;;;;;25.77;45.36;96086.19;6139052;22;20166;-81
2022/08/14 09:53:43;;;;;;;9.87;5.93;;;;;;;25.93;44.75;96118.78;6162958;22;20667;-79
2022/08/14 09:56:42;;;;;;;6.60;4.90;;;;;;;26.15;42.19;96118.66;6164360;22;20159;-78
2022/08/14 09:59:13;;;;;;;5.87;4.50;;;;;;;25.61;42.48;96027.22;6159917;22;20189;-79
2022/08/14 10:01:43;;;;;;;8.10;5.90;;;;;;;26.76;43.65;96217.38;6161304;22;20170;-78
2022/08/14 10:04:25;;;;;;;6.33;5.73;;;;;;;25.72;44.51;96062.03;6161032;22;20319;-80
2022/08/14 10:07:06;;;;;;;7.97;6.60;;;;;;;26.46;44.72;96160.88;6140404;22;20163;-77
2022/08/14 10:09:49;;;;;;;8.43;6.00;;;;;;;26.49;44.27;96117.97;6135391;22;20205;-77
2022/08/14 10:12:49;;;;;;;6.73;6.03;;;;;;;27.18;46.32;96218.13;6166731;22;20265;-81
2022/08/14 10:15:23;;;;;;;9.07;6.60;;;;;;;26.30;47.67;96100.84;6143356;22;20344;-80
2022/08/14 10:18:12;;;;;;;8.03;6.03;;;;;;;26.41;48.36;96200.44;6142240;22;20262;-75
2022/08/14 10:21:00;;;;;;;8.30;7.10;;;;;;;25.73;47.18;96058.38;6168798;22;20177;-80
2022/08/14 10:23:41;;;;;;;14.47;6.83;;;;;;;26.41;49.48;96180.00;6137023;22;20159;-81
2022/08/14 10:26:10;;;;;;;8.30;6.80;;;;;;;25.74;50.74;96134.28;6168693;22;20200;-75
2022/08/14 10:28:51;;;;;;;8.77;6.30;;;;;;;25.23;50.94;96071.59;6166214;22;20210;-76
2022/08/14 10:31:38;;;;;;;9.20;6.53;;;;;;;25.06;50.20;96085.22;6148881;22;20514;-80
2022/08/14 10:34:12;;;;;;;7.77;6.27;;;;;;;25.57;49.76;96164.69;6167190;22;20167;-81
2022/08/14 10:36:43;;;;;;;10.50;6.67;;;;;;;25.03;50.98;96095.19;6168983;22;20166;-80
2022/08/14 10:39:24;;;;;;;8.43;6.07;;;;;;;25.20;50.71;96106.44;6147632;22;20173;-82
2022/08/14 10:42:06;;;;;;;9.20;6.83;;;;;;;24.86;53.15;96112.25;6139580;22;20170;-76
2022/08/14 10:44:48;;;;;;;11.77;7.27;;;;;;;25.52;56.63;96240.47;6169112;22;20166;-78
2022/08/14 10:47:19;;;;;;;8.67;6.87;;;;;;;25.44;58.58;96248.53;6164816;22;20165;-75
2022/08/14 10:50:08;;;;;;;10.00;6.93;;;;;;;24.09;61.06;96108.03;6144609;22;20218;-75
2022/08/14 10:52:45;;;;;;;11.90;6.70;;;;;;;24.43;62.34;96199.47;6164575;22;20188;-78
2022/08/14 10:55:18;;;;;;;10.63;6.53;;;;;;;24.71;61.96;96269.47;6173414;22;20177;-80
2022/08/14 10:57:55;;;;;;;9.27;6.50;;;;;;;24.33;62.53;96273.81;6170738;22;20161;-81
2022/08/14 11:00:28;;;;;;;9.70;5.70;;;;;;;24.01;64.32;96242.16;6326281;22;20201;-77
2022/08/14 11:03:16;;;;;;;7.03;6.07;;;;;;;23.61;64.99;96173.59;6189797;22;20212;-75
2022/08/14 11:06:17;;;;;;;7.17;6.20;;;;;;;23.25;65.77;96117.66;6164269;22;20234;-77
2022/08/14 11:08:54;;;;;;;9.50;6.00;;;;;;;23.88;65.62;96216.28;6169591;22;20398;-76
2022/08/14 11:11:48;;;;;;;7.47;6.17;;;;;;;23.02;66.79;96103.56;6169697;22;20164;-78
2022/08/14 11:14:21;;;;;;;7.37;6.27;;;;;;;23.50;66.64;96192.44;6140824;22;20252;-75
2022/08/14 11:16:53;;;;;;;8.53;6.67;;;;;;;23.18;67.80;96156.34;6136721;22;20200;-74
2022/08/14 11:19:22;;;;;;;10.53;7.20;;;;;;;22.68;66.84;96093.22;6162454;22;20205;-75
2022/08/14 11:21:52;;;;;;;7.77;6.47;;;;;;;23.15;67.88;96136.38;6161681;22;20428;-77
2022/08/14 11:24:27;;;;;;;9.50;7.53;;;;;;;23.64;67.82;96181.97;6160971;22;20477;-77
2022/08/14 11:27:27;;;;;;;9.57;7.00;;;;;;;23.71;66.52;96172.38;6142214;22;20479;-73
2022/08/14 11:30:18;;;;;;;8.53;6.90;;;;;;;24.08;66.38;96201.66;6162972;22;20198;-74
2022/08/14 11:33:06;;;;;;;9.17;7.43;;;;;;;24.42;65.06;96227.75;6163261;22;20227;-75
2022/08/14 11:35:46;;;;;;;8.93;6.57;;;;;;;24.14;63.86;96163.91;6160969;22;20354;-74
2022/08/14 11:38:16;;;;;;;7.93;7.13;;;;;;;24.42;62.78;96166.88;6137941;22;20164;-79
2022/08/14 11:41:29;;;;;;;11.80;7.57;;;;;;;24.30;62.65;96120.63;6165862;22;20177;-74
2022/08/14 11:44:48;;;;;;;11.90;7.80;;;;;;;24.32;61.35;96065.69;6187656;22;20243;-76
2022/08/14 11:47:31;;;;;;;12.43;9.00;;;;;;;24.54;61.68;96078.09;6141283;22;20165;-73
2022/08/14 11:50:20;;;;;;;10.73;7.70;;;;;;;25.25;58.26;96133.19;6142510;22;20223;-74
2022/08/14 11:53:06;;;;;;;8.37;7.57;;;;;;;25.13;58.70;96083.47;6142231;22;20169;-74
2022/08/14 11:55:37;;;;;;;15.07;8.97;;;;;;;25.23;57.47;96055.69;6160848;22;20161;-75
2022/08/14 11:58:16;;;;;;;12.90;9.33;;;;;;;26.00;57.06;96140.94;6137651;22;20212;-75
2022/08/14 12:01:02;;;;;;;15.53;10.07;;;;;;;25.95;56.49;96095.53;6138094;22;20166;-79
2022/08/14 12:03:46;;;;;;;9.87;8.87;;;;;;;26.07;56.10;96086.94;6159756;22;20183;-75
2022/08/14 12:06:27;;;;;;;11.13;8.93;;;;;;;25.52;55.39;95980.59;6147492;22;20167;-78
2022/08/14 12:09:06;;;;;;;11.57;8.60;;;;;;;25.79;54.79;96044.38;6196151;22;20197;-79
2022/08/14 12:11:43;;;;;;;10.27;8.97;;;;;;;26.14;54.66;96087.00;6188299;22;20406;-73
2022/08/14 12:14:21;;;;;;;10.70;8.27;;;;;;;26.67;53.15;96134.28;6187698;22;20158;-72
2022/08/14 12:17:08;;;;;;;11.63;9.57;;;;;;;26.10;53.15;96027.34;6161554;22;20195;-74
2022/08/14 12:19:59;;;;;;;10.27;9.13;;;;;;;27.16;51.87;96177.63;6121562;23;20463;-75
2022/08/14 12:22:39;;;;;;;12.73;9.73;;;;;;;26.50;52.43;96042.63;6175839;22;20222;-77
2022/08/14 12:25:18;;;;;;;9.97;8.87;;;;;;;26.54;52.81;96025.28;6138149;22;20162;-74
2022/08/14 12:27:48;;;;;;;10.77;9.03;;;;;;;26.91;52.71;96085.25;6136749;22;20181;-74
2022/08/14 12:30:41;;;;;;;11.40;8.60;;;;;;;27.34;51.80;96151.44;6136469;22;20190;-73